createdAt,value
2023-04-19T00:00:02.456Z,0
2023-04-19T00:15:02.850Z,0
2023-04-19T00:30:02.462Z,0
2023-04-19T00:45:02.736Z,0
2023-04-19T01:00:03.207Z,0
2023-04-19T01:15:02.635Z,0
2023-04-19T01:30:03.063Z,0
2023-04-19T01:45:02.505Z,0
2023-04-19T02:00:02.947Z,0
2023-04-19T02:15:02.492Z,0
2023-04-19T02:30:02.803Z,0
2023-04-19T02:45:03.222Z,0
2023-04-19T03:00:02.658Z,0
2023-04-19T03:15:03.112Z,0
2023-04-19T03:30:02.597Z,0
2023-04-19T03:45:02.985Z,0
2023-04-19T04:00:02.504Z,0
2023-04-19T04:15:02.884Z,0
2023-04-19T04:30:02.502Z,0
2023-04-19T04:45:02.790Z,2
2023-04-19T05:00:03.262Z,10
2023-04-19T05:15:02.720Z,22
2023-04-19T05:30:03.100Z,52
2023-04-19T05:45:05.364Z,145
2023-04-19T06:15:02.529Z,228
2023-04-19T06:30:02.831Z,253
2023-04-19T06:45:02.278Z,297
2023-04-19T07:00:02.687Z,319
2023-04-19T07:15:03.079Z,305
2023-04-19T07:30:02.570Z,330
2023-04-19T07:45:03.017Z,371
2023-04-19T08:00:02.554Z,398
2023-04-19T08:15:19.708Z,427
2023-04-19T08:30:03.252Z,474
2023-04-19T08:45:26.276Z,436
2023-04-19T09:00:02.114Z,528
2023-04-19T09:15:02.977Z,561
2023-04-19T09:30:02.995Z,580
2023-04-19T09:45:28.262Z,614
2023-04-19T10:00:02.889Z,633
2023-04-19T10:15:02.306Z,652
2023-04-19T10:30:02.737Z,655
2023-04-19T10:45:03.173Z,665
2023-04-19T11:00:02.625Z,671
2023-04-19T11:15:03.056Z,672
2023-04-19T11:30:02.575Z,670
2023-04-19T11:45:02.974Z,665
2023-04-19T12:00:02.577Z,694
2023-04-19T12:15:02.834Z,708
2023-04-19T12:30:02.258Z,659
2023-04-19T12:45:02.711Z,658
2023-04-19T13:00:03.110Z,631
2023-04-19T13:15:04.485Z,588
2023-04-19T13:30:03.020Z,597
2023-04-19T13:45:02.632Z,560
2023-04-19T14:00:02.882Z,511
2023-04-19T14:15:02.344Z,290
2023-04-19T14:30:02.836Z,234
2023-04-19T14:45:02.291Z,462
2023-04-19T15:00:02.681Z,129
2023-04-19T15:15:03.134Z,292
2023-04-19T15:30:02.617Z,364
2023-04-19T15:45:03.009Z,324
2023-04-19T16:00:02.633Z,281
2023-04-19T16:15:03.011Z,244
2023-04-19T16:30:02.369Z,52
2023-04-19T16:45:02.793Z,167
2023-04-19T17:00:03.241Z,156
2023-04-19T17:15:02.697Z,102
2023-04-19T17:30:03.131Z,92
2023-04-19T17:45:02.652Z,44
2023-04-19T18:00:03.089Z,20
2023-04-19T18:15:02.651Z,7
2023-04-19T18:30:02.914Z,0
2023-04-19T18:45:02.376Z,0
2023-04-19T19:00:02.841Z,0
2023-04-19T19:15:02.270Z,0
2023-04-19T19:30:02.721Z,0
2023-04-19T19:45:02.172Z,0
2023-04-19T20:00:22.948Z,0
2023-04-19T20:15:03.053Z,0
2023-04-19T20:30:02.674Z,0
2023-04-19T20:45:02.943Z,0
2023-04-19T21:00:02.386Z,0
2023-04-19T21:15:02.824Z,0
2023-04-19T21:30:02.268Z,0
2023-04-19T21:45:02.752Z,0
2023-04-19T22:00:02.214Z,0
2023-04-19T22:15:02.700Z,0
2023-04-19T22:30:03.104Z,0
2023-04-19T22:45:02.716Z,0
2023-04-19T23:00:03.000Z,0
2023-04-19T23:15:02.692Z,0
2023-04-19T23:30:02.903Z,0
2023-04-19T23:45:02.382Z,0
